createdAt,value
2023-02-17T00:00:54.111Z,423.43
2023-02-17T00:04:03.939Z,428.15
2023-02-17T00:07:10.616Z,427.07
2023-02-17T00:10:16.562Z,428.12
2023-02-17T00:13:23.228Z,422.24
2023-02-17T00:16:32.331Z,420.89
2023-02-17T00:19:41.663Z,415.95
2023-02-17T00:22:47.568Z,407.27
2023-02-17T00:25:54.278Z,409.53
2023-02-17T00:29:02.084Z,421.94
2023-02-17T00:32:10.709Z,417.91
2023-02-17T00:35:19.882Z,434.35
2023-02-17T00:38:26.845Z,446.80
2023-02-17T00:41:33.802Z,455.33
2023-02-17T00:44:40.486Z,451.20
2023-02-17T00:47:46.255Z,457.36
2023-02-17T00:50:55.582Z,462.65
2023-02-17T00:54:01.417Z,469.83
2023-02-17T00:57:08.268Z,468.17
2023-02-17T01:00:16.083Z,470.00
2023-02-17T01:03:23.159Z,479.86
2023-02-17T01:06:36.807Z,473.08
2023-02-17T01:09:43.548Z,475.18
2023-02-17T01:12:49.370Z,468.89
2023-02-17T01:15:57.075Z,459.37
2023-02-17T01:19:03.686Z,466.22
2023-02-17T01:22:13.810Z,470.68
2023-02-17T01:25:19.830Z,454.97
2023-02-17T01:28:26.721Z,443.73
2023-02-17T01:31:39.447Z,444.81
2023-02-17T01:34:46.341Z,438.78
2023-02-17T01:37:54.778Z,440.66
2023-02-17T01:41:07.797Z,439.61
2023-02-17T01:44:21.987Z,438.81
2023-02-17T01:47:32.840Z,436.52
2023-02-17T01:50:48.222Z,437.23
2023-02-17T01:54:10.573Z,427.09
2023-02-17T01:57:26.786Z,421.68
2023-02-17T02:00:44.117Z,422.43
2023-02-17T02:03:53.576Z,415.51
2023-02-17T02:07:04.975Z,408.53
2023-02-17T02:10:17.562Z,412.29
2023-02-17T02:13:24.925Z,436.32
2023-02-17T02:16:49.803Z,449.35
2023-02-17T02:20:31.542Z,440.87
2023-02-17T02:24:08.319Z,396.21
2023-02-17T02:27:48.952Z,387.27
2023-02-17T02:31:27.705Z,378.85
2023-02-17T02:34:55.245Z,386.28
2023-02-17T02:38:12.218Z,381.70
2023-02-17T02:41:29.652Z,375.31
2023-02-17T02:44:35.599Z,372.10
2023-02-17T02:47:56.144Z,365.31
2023-02-17T02:51:35.564Z,378.00
2023-02-17T02:55:00.652Z,376.62
2023-02-17T02:58:22.401Z,374.51
2023-02-17T03:01:47.370Z,368.91
2023-02-17T03:05:14.249Z,364.25
2023-02-17T03:08:36.317Z,369.74
2023-02-17T03:11:49.129Z,369.79
2023-02-17T03:15:08.212Z,370.82
2023-02-17T03:18:14.424Z,355.35
2023-02-17T03:21:23.052Z,357.04
2023-02-17T03:24:36.463Z,353.15
2023-02-17T03:27:46.744Z,346.78
2023-02-17T03:30:53.794Z,347.65
2023-02-17T03:34:02.452Z,352.13
2023-02-17T03:37:08.274Z,353.55
2023-02-17T03:40:17.769Z,353.14
2023-02-17T03:43:23.877Z,358.52
2023-02-17T03:46:30.870Z,362.38
2023-02-17T03:49:36.927Z,374.52
2023-02-17T03:52:43.611Z,376.05
2023-02-17T03:55:52.220Z,361.20
2023-02-17T03:58:59.029Z,360.85
2023-02-17T04:02:04.925Z,362.58
2023-02-17T04:05:12.007Z,359.78
2023-02-17T04:08:18.019Z,360.51
2023-02-17T04:11:27.576Z,369.67
2023-02-17T04:14:33.507Z,367.68
2023-02-17T04:17:41.096Z,366.54
2023-02-17T04:20:47.385Z,364.20
2023-02-17T04:23:55.311Z,355.83
2023-02-17T04:27:03.937Z,363.57
2023-02-17T04:30:12.924Z,364.99
2023-02-17T04:33:20.344Z,381.18
2023-02-17T04:36:28.186Z,418.39
2023-02-17T04:39:34.100Z,442.13
2023-02-17T04:42:43.470Z,421.92
2023-02-17T04:45:49.344Z,403.08
2023-02-17T04:48:56.237Z,397.05
2023-02-17T04:52:02.360Z,432.65
2023-02-17T04:55:11.244Z,486.43
2023-02-17T04:58:20.958Z,407.87
2023-02-17T05:01:27.769Z,388.33
2023-02-17T05:04:34.395Z,380.88
2023-02-17T05:07:41.087Z,364.47
2023-02-17T05:10:47.385Z,372.34
2023-02-17T05:13:56.743Z,364.38
2023-02-17T05:17:02.627Z,378.37
2023-02-17T05:20:12.748Z,380.86
2023-02-17T05:23:18.706Z,389.19
2023-02-17T05:26:25.445Z,376.47
2023-02-17T05:29:33.972Z,374.46
2023-02-17T05:32:40.713Z,371.64
2023-02-17T05:35:46.608Z,364.81
2023-02-17T05:38:53.498Z,352.28
2023-02-17T05:41:59.472Z,361.25
2023-02-17T05:45:09.593Z,348.51
2023-02-17T05:48:15.686Z,353.69
2023-02-17T05:51:22.451Z,370.39
2023-02-17T05:54:28.374Z,380.78
2023-02-17T05:57:35.695Z,371.30
2023-02-17T06:00:44.195Z,387.59
2023-02-17T06:03:51.377Z,397.81
2023-02-17T06:06:57.303Z,418.01
2023-02-17T06:10:04.049Z,392.79
2023-02-17T06:13:09.953Z,396.72
2023-02-17T06:16:19.361Z,391.72
2023-02-17T06:19:25.228Z,393.10
2023-02-17T06:22:31.882Z,382.98
2023-02-17T06:25:37.788Z,377.25
2023-02-17T06:28:44.535Z,372.51
2023-02-17T06:31:53.207Z,355.29
2023-02-17T06:34:59.915Z,343.14
2023-02-17T06:38:05.832Z,346.87
2023-02-17T06:41:12.604Z,334.71
2023-02-17T06:44:18.502Z,337.14
2023-02-17T06:47:27.809Z,325.88
2023-02-17T06:50:33.704Z,322.43
2023-02-17T06:53:40.554Z,314.20
2023-02-17T06:56:46.781Z,300.47
2023-02-17T06:59:53.487Z,302.28
2023-02-17T07:03:02.123Z,302.98
2023-02-17T07:06:09.501Z,299.85
2023-02-17T07:09:15.449Z,305.47
2023-02-17T07:12:22.231Z,302.44
2023-02-17T07:15:28.510Z,306.17
2023-02-17T07:18:38.343Z,295.68
2023-02-17T07:21:44.446Z,306.66
2023-02-17T07:24:51.332Z,310.04
2023-02-17T07:27:57.343Z,309.79
2023-02-17T07:31:09.767Z,311.79
2023-02-17T07:34:18.336Z,302.69
2023-02-17T07:37:25.211Z,314.33
2023-02-17T07:40:31.994Z,322.81
2023-02-17T07:43:38.913Z,295.15
2023-02-17T07:46:45.042Z,290.30
2023-02-17T07:49:54.466Z,303.01
2023-02-17T07:53:00.347Z,304.47
2023-02-17T07:56:08.547Z,315.44
2023-02-17T07:59:16.396Z,305.65
2023-02-17T08:02:23.258Z,309.54
2023-02-17T08:05:31.911Z,328.26
2023-02-17T08:08:51.124Z,370.86
2023-02-17T08:12:09.606Z,364.51
2023-02-17T08:15:17.082Z,336.55
2023-02-17T08:18:23.058Z,343.27
2023-02-17T08:21:33.524Z,346.08
2023-02-17T08:24:39.389Z,343.53
2023-02-17T08:27:46.277Z,353.92
2023-02-17T08:30:52.177Z,305.90
2023-02-17T08:34:00.438Z,291.80
2023-02-17T08:37:10.238Z,314.03
2023-02-17T08:40:17.050Z,319.85
2023-02-17T08:43:22.905Z,328.34
2023-02-17T08:46:31.268Z,299.75
2023-02-17T08:49:37.341Z,286.50
2023-02-17T08:52:46.675Z,282.67
2023-02-17T08:55:52.460Z,277.43
2023-02-17T08:59:00.255Z,264.58
2023-02-17T09:02:06.320Z,270.95
2023-02-17T09:05:13.983Z,278.83
2023-02-17T09:08:23.466Z,283.70
2023-02-17T09:11:30.545Z,284.37
2023-02-17T09:14:36.828Z,294.80
2023-02-17T09:17:44.379Z,307.76
2023-02-17T09:20:50.520Z,274.48
2023-02-17T09:24:00.009Z,263.59
2023-02-17T09:27:06.100Z,289.28
2023-02-17T09:30:14.867Z,349.42
2023-02-17T09:33:20.801Z,368.81
2023-02-17T09:36:33.746Z,335.76
2023-02-17T09:39:42.334Z,286.98
2023-02-17T09:42:50.543Z,266.49
2023-02-17T09:46:04.369Z,261.87
2023-02-17T09:49:19.270Z,269.99
2023-02-17T09:52:36.537Z,280.93
2023-02-17T09:55:54.844Z,289.51
2023-02-17T09:59:10.343Z,257.99
2023-02-17T10:02:31.251Z,272.64
2023-02-17T10:05:45.562Z,264.76
2023-02-17T10:09:02.131Z,260.08
2023-02-17T10:12:18.889Z,271.68
2023-02-17T10:15:34.721Z,245.22
2023-02-17T10:18:50.619Z,245.13
2023-02-17T10:22:14.022Z,244.11
2023-02-17T10:25:28.226Z,245.38
2023-02-17T10:28:54.065Z,236.75
2023-02-17T10:32:22.484Z,248.05
2023-02-17T10:35:51.328Z,255.96
2023-02-17T10:39:09.614Z,255.65
2023-02-17T10:42:28.291Z,256.62
2023-02-17T10:45:41.397Z,250.99
2023-02-17T10:48:55.473Z,271.76
2023-02-17T10:52:09.062Z,277.91
2023-02-17T10:55:28.622Z,293.18
2023-02-17T10:58:44.357Z,270.40
2023-02-17T11:01:54.820Z,261.38
2023-02-17T11:05:00.822Z,237.64
2023-02-17T11:08:31.293Z,236.24
2023-02-17T11:11:40.033Z,256.84
2023-02-17T11:14:51.965Z,281.01
2023-02-17T11:18:11.910Z,254.48
2023-02-17T11:21:19.007Z,243.40
2023-02-17T11:24:25.549Z,273.06
2023-02-17T11:27:33.360Z,249.00
2023-02-17T11:30:41.715Z,226.11
2023-02-17T11:33:51.173Z,246.13
2023-02-17T11:37:07.236Z,229.58
2023-02-17T11:40:29.252Z,234.84
2023-02-17T11:43:36.031Z,246.72
2023-02-17T11:46:55.920Z,241.15
2023-02-17T11:50:41.277Z,231.13
2023-02-17T11:54:07.789Z,231.17
2023-02-17T11:57:39.260Z,253.32
2023-02-17T12:01:12.097Z,277.52
2023-02-17T12:04:30.975Z,273.10
2023-02-17T12:08:02.796Z,262.80
2023-02-17T12:11:32.181Z,270.24
2023-02-17T12:15:10.175Z,241.47
2023-02-17T12:18:42.397Z,250.33
2023-02-17T12:22:11.752Z,272.40
2023-02-17T12:25:31.150Z,316.05
2023-02-17T12:29:31.954Z,352.48
2023-02-17T12:33:08.193Z,284.47
2023-02-17T12:36:26.852Z,279.66
2023-02-17T12:39:44.690Z,267.94
2023-02-17T12:43:05.118Z,252.09
2023-02-17T12:46:23.280Z,238.49
2023-02-17T12:49:40.609Z,253.27
2023-02-17T12:53:03.678Z,247.11
2023-02-17T12:56:51.136Z,246.40
2023-02-17T13:00:05.616Z,247.63
2023-02-17T13:03:13.898Z,249.85
2023-02-17T13:06:39.452Z,249.18
2023-02-17T13:09:56.661Z,252.98
2023-02-17T13:13:21.274Z,265.04
2023-02-17T13:16:35.599Z,285.17
2023-02-17T13:19:42.267Z,261.63
2023-02-17T13:22:51.422Z,269.63
2023-02-17T13:26:29.373Z,265.12
2023-02-17T13:29:39.416Z,345.93
2023-02-17T13:33:08.917Z,324.25
2023-02-17T13:36:20.846Z,322.92
2023-02-17T13:39:41.792Z,277.16
2023-02-17T13:42:50.458Z,288.64
2023-02-17T13:46:10.955Z,330.25
2023-02-17T13:49:29.535Z,311.01
2023-02-17T13:52:36.111Z,340.88
2023-02-17T13:55:43.562Z,292.67
2023-02-17T13:58:49.412Z,260.99
2023-02-17T14:01:58.006Z,221.46
2023-02-17T14:05:21.850Z,209.86
2023-02-17T14:08:40.174Z,197.89
2023-02-17T14:11:46.304Z,203.33
2023-02-17T14:14:53.719Z,208.28
2023-02-17T14:18:00.275Z,209.83
2023-02-17T14:21:13.262Z,202.40
2023-02-17T14:24:32.201Z,227.28
2023-02-17T14:27:47.277Z,219.24
2023-02-17T14:30:54.713Z,218.02
2023-02-17T14:34:05.979Z,207.95
2023-02-17T14:37:31.173Z,215.05
2023-02-17T14:40:40.013Z,241.43
2023-02-17T14:43:46.056Z,229.05
2023-02-17T14:46:52.782Z,229.11
2023-02-17T14:49:58.737Z,231.33
2023-02-17T14:53:17.614Z,236.15
2023-02-17T14:56:32.671Z,251.08
2023-02-17T14:59:39.836Z,243.55
2023-02-17T15:02:45.987Z,244.31
2023-02-17T15:05:53.485Z,251.78
2023-02-17T15:09:04.275Z,280.55
2023-02-17T15:12:20.233Z,274.50
2023-02-17T15:15:26.575Z,272.30
2023-02-17T15:18:33.547Z,274.55
2023-02-17T15:21:43.239Z,275.06
2023-02-17T15:24:53.236Z,277.64
2023-02-17T15:27:59.504Z,277.83
2023-02-17T15:31:06.747Z,304.14
2023-02-17T15:34:18.970Z,265.19
2023-02-17T15:37:25.886Z,236.61
2023-02-17T15:40:34.908Z,249.57
2023-02-17T15:43:41.921Z,239.53
2023-02-17T15:46:49.066Z,223.88
2023-02-17T15:49:55.825Z,212.18
2023-02-17T15:53:02.728Z,194.43
2023-02-17T15:56:22.335Z,206.65
2023-02-17T15:59:31.123Z,197.52
2023-02-17T16:02:37.959Z,199.98
2023-02-17T16:05:45.537Z,204.02
2023-02-17T16:08:52.545Z,216.60
2023-02-17T16:12:01.815Z,208.72
2023-02-17T16:15:14.226Z,204.75
2023-02-17T16:18:26.009Z,214.63
2023-02-17T16:21:39.561Z,230.12
2023-02-17T16:24:47.031Z,221.84
2023-02-17T16:27:58.087Z,241.12
2023-02-17T16:31:13.822Z,208.18
2023-02-17T16:34:24.882Z,222.82
2023-02-17T16:37:30.968Z,225.39
2023-02-17T16:40:47.338Z,241.34
2023-02-17T16:43:58.942Z,221.27
2023-02-17T16:47:08.987Z,219.51
2023-02-17T16:50:27.126Z,212.31
2023-02-17T16:53:33.993Z,213.01
2023-02-17T16:56:46.496Z,217.28
2023-02-17T16:59:56.183Z,220.60
2023-02-17T17:03:04.998Z,193.04
2023-02-17T17:06:25.719Z,203.26
2023-02-17T17:09:31.636Z,194.42
2023-02-17T17:12:38.882Z,200.62
2023-02-17T17:15:49.084Z,197.26
2023-02-17T17:18:56.309Z,191.60
2023-02-17T17:22:04.960Z,195.47
2023-02-17T17:25:18.517Z,208.45
2023-02-17T17:28:26.562Z,207.78
2023-02-17T17:31:40.965Z,179.76
2023-02-17T17:34:47.176Z,181.59
2023-02-17T17:37:54.289Z,207.75
2023-02-17T17:41:00.292Z,190.67
2023-02-17T17:44:10.481Z,191.30
2023-02-17T17:47:29.821Z,195.98
2023-02-17T17:50:36.792Z,182.64
2023-02-17T17:53:42.892Z,186.59
2023-02-17T17:56:50.504Z,190.38
2023-02-17T17:59:58.172Z,185.98
2023-02-17T18:03:08.017Z,163.89
2023-02-17T18:06:21.886Z,162.45
2023-02-17T18:09:36.035Z,173.13
2023-02-17T18:12:45.334Z,179.63
2023-02-17T18:15:52.635Z,172.97
2023-02-17T18:19:06.091Z,194.48
2023-02-17T18:22:16.323Z,182.55
2023-02-17T18:25:23.200Z,177.07
2023-02-17T18:28:30.034Z,183.12
2023-02-17T18:31:38.120Z,182.74
2023-02-17T18:34:47.449Z,191.09
2023-02-17T18:37:53.915Z,184.77
2023-02-17T18:41:03.210Z,188.51
2023-02-17T18:44:11.207Z,184.82
2023-02-17T18:47:18.024Z,187.82
2023-02-17T18:50:27.107Z,182.16
2023-02-17T18:53:36.245Z,212.13
2023-02-17T18:56:42.326Z,213.01
2023-02-17T18:59:50.788Z,190.03
2023-02-17T19:03:03.484Z,187.42
2023-02-17T19:06:19.422Z,177.91
2023-02-17T19:09:25.306Z,198.14
2023-02-17T19:12:32.159Z,201.28
2023-02-17T19:15:38.161Z,187.44
2023-02-17T19:18:46.949Z,182.95
2023-02-17T19:21:56.093Z,190.08
2023-02-17T19:25:07.012Z,174.81
2023-02-17T19:28:13.134Z,178.29
2023-02-17T19:31:23.452Z,171.25
2023-02-17T19:34:31.357Z,182.59
2023-02-17T19:37:43.662Z,184.44
2023-02-17T19:40:50.658Z,182.37
2023-02-17T19:43:57.379Z,177.28
2023-02-17T19:47:05.007Z,187.49
2023-02-17T19:50:12.352Z,181.63
2023-02-17T19:53:27.601Z,178.12
2023-02-17T19:56:37.157Z,181.56
2023-02-17T19:59:43.017Z,180.60
2023-02-17T20:02:50.220Z,177.25
2023-02-17T20:05:56.179Z,179.61
2023-02-17T20:09:14.878Z,174.78
2023-02-17T20:12:21.939Z,205.18
2023-02-17T20:15:28.864Z,180.41
2023-02-17T20:18:34.772Z,174.51
2023-02-17T20:21:47.176Z,180.22
2023-02-17T20:24:55.720Z,167.18
2023-02-17T20:28:04.380Z,175.77
2023-02-17T20:31:11.980Z,205.83
2023-02-17T20:34:34.901Z,206.67
2023-02-17T20:37:40.748Z,213.05
2023-02-17T20:40:50.122Z,210.70
2023-02-17T20:43:56.344Z,208.12
2023-02-17T20:47:17.587Z,196.26
2023-02-17T20:50:26.171Z,186.13
2023-02-17T20:53:32.903Z,187.88
2023-02-17T20:56:45.376Z,205.80
2023-02-17T20:59:52.249Z,197.55
2023-02-17T21:02:58.590Z,169.12
2023-02-17T21:06:24.356Z,194.99
2023-02-17T21:09:30.698Z,198.04
2023-02-17T21:12:40.602Z,198.17
2023-02-17T21:15:46.794Z,193.58
2023-02-17T21:18:55.293Z,191.29
2023-02-17T21:22:01.522Z,202.67
2023-02-17T21:25:12.240Z,209.35
2023-02-17T21:28:25.445Z,199.07
2023-02-17T21:31:32.359Z,185.84
2023-02-17T21:34:42.032Z,193.44
2023-02-17T21:37:48.937Z,177.68
2023-02-17T21:40:55.033Z,151.12
2023-02-17T21:44:16.928Z,142.67
2023-02-17T21:47:26.912Z,138.25
2023-02-17T21:50:37.505Z,132.07
2023-02-17T21:53:43.790Z,132.12
2023-02-17T21:56:50.629Z,128.29
2023-02-17T21:59:59.245Z,146.63
2023-02-17T22:03:05.980Z,148.58
2023-02-17T22:06:22.435Z,136.51
2023-02-17T22:09:32.431Z,128.53
2023-02-17T22:12:39.842Z,142.32
2023-02-17T22:15:49.237Z,172.89
2023-02-17T22:18:55.457Z,170.83
2023-02-17T22:22:08.639Z,141.14
2023-02-17T22:25:33.526Z,114.56
2023-02-17T22:28:40.313Z,114.90
2023-02-17T22:31:50.630Z,111.82
2023-02-17T22:34:57.707Z,124.78
2023-02-17T22:38:03.702Z,127.87
2023-02-17T22:41:13.870Z,124.83
2023-02-17T22:44:20.023Z,130.06
2023-02-17T22:47:29.575Z,126.84
2023-02-17T22:50:35.547Z,117.40
2023-02-17T22:53:42.903Z,112.38
2023-02-17T22:56:48.945Z,114.02
2023-02-17T22:59:55.767Z,120.33
2023-02-17T23:03:04.374Z,122.81
2023-02-17T23:06:18.122Z,119.27
2023-02-17T23:09:24.064Z,131.47
2023-02-17T23:12:30.877Z,124.72
2023-02-17T23:15:42.562Z,125.63
2023-02-17T23:18:52.004Z,125.00
2023-02-17T23:22:03.187Z,125.95
2023-02-17T23:25:09.979Z,129.14
2023-02-17T23:28:16.010Z,142.24
2023-02-17T23:31:22.852Z,141.38
2023-02-17T23:34:32.183Z,154.38
2023-02-17T23:37:38.949Z,199.97
2023-02-17T23:40:45.561Z,239.00
2023-02-17T23:43:52.457Z,159.49
2023-02-17T23:46:58.286Z,118.06
2023-02-17T23:50:09.821Z,111.38
2023-02-17T23:53:15.896Z,110.58
2023-02-17T23:56:27.954Z,110.78
2023-02-17T23:59:40.667Z,121.07
